sensor_id;sensor_type;location;lat;lon;timestamp;temperature;humidity
35607;DHT22;21729;58.392;15.656;2024-01-11T00:00:40;-0.70;99.90
35607;DHT22;21729;58.392;15.656;2024-01-11T00:03:07;-0.70;99.90
35607;DHT22;21729;58.392;15.656;2024-01-11T00:05:36;-0.90;99.90
35607;DHT22;21729;58.392;15.656;2024-01-11T00:08:05;-0.90;99.90
35607;DHT22;21729;58.392;15.656;2024-01-11T00:10:32;-1.00;99.90
35607;DHT22;21729;58.392;15.656;2024-01-11T00:12:59;-1.00;99.90
35607;DHT22;21729;58.392;15.656;2024-01-11T00:15:26;-0.80;99.90
35607;DHT22;21729;58.392;15.656;2024-01-11T00:17:53;-0.70;99.90
35607;DHT22;21729;58.392;15.656;2024-01-11T00:20:20;-0.60;99.90
35607;DHT22;21729;58.392;15.656;2024-01-11T00:22:48;-0.90;99.90
35607;DHT22;21729;58.392;15.656;2024-01-11T00:25:15;-0.90;99.90
35607;DHT22;21729;58.392;15.656;2024-01-11T00:27:42;-0.90;99.90
35607;DHT22;21729;58.392;15.656;2024-01-11T00:30:10;-1.00;99.90
35607;DHT22;21729;58.392;15.656;2024-01-11T00:32:37;-1.00;99.90
35607;DHT22;21729;58.392;15.656;2024-01-11T00:35:05;-0.80;99.90
35607;DHT22;21729;58.392;15.656;2024-01-11T00:37:32;-1.10;99.90
35607;DHT22;21729;58.392;15.656;2024-01-11T00:40:00;-1.10;99.90
35607;DHT22;21729;58.392;15.656;2024-01-11T00:42:27;-1.20;99.90
35607;DHT22;21729;58.392;15.656;2024-01-11T00:44:54;-1.00;99.90
35607;DHT22;21729;58.392;15.656;2024-01-11T00:47:21;-1.30;99.90
35607;DHT22;21729;58.392;15.656;2024-01-11T00:49:48;-1.30;99.90
35607;DHT22;21729;58.392;15.656;2024-01-11T00:52:15;-1.10;99.90
35607;DHT22;21729;58.392;15.656;2024-01-11T00:54:42;-1.30;99.90
35607;DHT22;21729;58.392;15.656;2024-01-11T00:57:10;-1.30;99.90
35607;DHT22;21729;58.392;15.656;2024-01-11T00:59:39;-1.30;99.90
35607;DHT22;21729;58.392;15.656;2024-01-11T01:02:06;-1.40;99.90
35607;DHT22;21729;58.392;15.656;2024-01-11T01:04:34;-1.20;99.90
35607;DHT22;21729;58.392;15.656;2024-01-11T01:07:04;-1.40;99.90
35607;DHT22;21729;58.392;15.656;2024-01-11T01:09:31;-1.40;99.90
35607;DHT22;21729;58.392;15.656;2024-01-11T01:11:58;-1.10;99.90
35607;DHT22;21729;58.392;15.656;2024-01-11T01:14:26;-1.40;99.90
35607;DHT22;21729;58.392;15.656;2024-01-11T01:16:53;-1.40;99.90
35607;DHT22;21729;58.392;15.656;2024-01-11T01:19:21;-1.40;99.90
35607;DHT22;21729;58.392;15.656;2024-01-11T01:21:48;-1.30;99.90
35607;DHT22;21729;58.392;15.656;2024-01-11T01:24:15;-1.40;99.90
35607;DHT22;21729;58.392;15.656;2024-01-11T01:26:42;-1.30;99.90
35607;DHT22;21729;58.392;15.656;2024-01-11T01:29:09;-1.40;99.90
35607;DHT22;21729;58.392;15.656;2024-01-11T01:31:37;-1.00;99.90
35607;DHT22;21729;58.392;15.656;2024-01-11T01:34:04;-1.20;99.90
35607;DHT22;21729;58.392;15.656;2024-01-11T01:36:31;-1.30;99.90
35607;DHT22;21729;58.392;15.656;2024-01-11T01:38:58;-1.50;99.90
35607;DHT22;21729;58.392;15.656;2024-01-11T01:41:25;-1.50;99.90
35607;DHT22;21729;58.392;15.656;2024-01-11T01:43:52;-1.30;99.90
35607;DHT22;21729;58.392;15.656;2024-01-11T01:46:23;-1.20;99.90
35607;DHT22;21729;58.392;15.656;2024-01-11T01:48:52;-1.50;99.90
35607;DHT22;21729;58.392;15.656;2024-01-11T01:51:21;-1.60;99.90
35607;DHT22;21729;58.392;15.656;2024-01-11T01:53:48;-1.60;99.90
35607;DHT22;21729;58.392;15.656;2024-01-11T01:56:17;-1.40;99.90
35607;DHT22;21729;58.392;15.656;2024-01-11T01:58:45;-1.50;99.90
35607;DHT22;21729;58.392;15.656;2024-01-11T02:01:13;-1.20;99.90
35607;DHT22;21729;58.392;15.656;2024-01-11T02:03:41;-1.50;99.90
35607;DHT22;21729;58.392;15.656;2024-01-11T02:06:09;-1.40;99.90
35607;DHT22;21729;58.392;15.656;2024-01-11T02:08:36;-1.50;1.00
35607;DHT22;21729;58.392;15.656;2024-01-11T02:11:05;-1.20;99.90
35607;DHT22;21729;58.392;15.656;2024-01-11T02:13:32;-1.40;99.90
35607;DHT22;21729;58.392;15.656;2024-01-11T02:15:59;-1.50;99.90
35607;DHT22;21729;58.392;15.656;2024-01-11T02:18:27;-1.20;99.90
35607;DHT22;21729;58.392;15.656;2024-01-11T02:20:54;-1.50;99.90
35607;DHT22;21729;58.392;15.656;2024-01-11T02:23:24;-1.30;1.00
35607;DHT22;21729;58.392;15.656;2024-01-11T02:25:54;-1.40;1.00
35607;DHT22;21729;58.392;15.656;2024-01-11T02:28:21;-1.40;1.00
35607;DHT22;21729;58.392;15.656;2024-01-11T02:30:50;-1.40;1.00
35607;DHT22;21729;58.392;15.656;2024-01-11T02:33:17;-1.20;1.00
35607;DHT22;21729;58.392;15.656;2024-01-11T02:35:44;-1.50;1.00
35607;DHT22;21729;58.392;15.656;2024-01-11T02:38:11;-1.40;1.00
35607;DHT22;21729;58.392;15.656;2024-01-11T02:40:38;-1.30;1.00
35607;DHT22;21729;58.392;15.656;2024-01-11T02:43:11;-1.50;1.00
35607;DHT22;21729;58.392;15.656;2024-01-11T02:45:38;-1.60;1.00
35607;DHT22;21729;58.392;15.656;2024-01-11T02:48:06;-1.60;1.00
35607;DHT22;21729;58.392;15.656;2024-01-11T02:50:33;-1.60;1.00
35607;DHT22;21729;58.392;15.656;2024-01-11T02:53:00;-1.50;1.00
35607;DHT22;21729;58.392;15.656;2024-01-11T02:55:27;-1.50;1.00
35607;DHT22;21729;58.392;15.656;2024-01-11T02:57:54;-1.60;1.00
35607;DHT22;21729;58.392;15.656;2024-01-11T03:00:22;-1.50;1.00
35607;DHT22;21729;58.392;15.656;2024-01-11T03:02:49;-1.50;1.00
35607;DHT22;21729;58.392;15.656;2024-01-11T03:05:16;-1.50;1.00
35607;DHT22;21729;58.392;15.656;2024-01-11T03:07:43;-1.70;1.00
35607;DHT22;21729;58.392;15.656;2024-01-11T03:10:10;-1.30;1.00
35607;DHT22;21729;58.392;15.656;2024-01-11T03:12:40;-1.60;1.00
35607;DHT22;21729;58.392;15.656;2024-01-11T03:15:07;-1.60;1.00
35607;DHT22;21729;58.392;15.656;2024-01-11T03:17:36;-1.60;1.00
35607;DHT22;21729;58.392;15.656;2024-01-11T03:20:04;-1.70;1.00
35607;DHT22;21729;58.392;15.656;2024-01-11T03:22:31;-1.70;1.00
35607;DHT22;21729;58.392;15.656;2024-01-11T03:24:58;-1.70;1.00
35607;DHT22;21729;58.392;15.656;2024-01-11T03:27:25;-1.50;1.00
35607;DHT22;21729;58.392;15.656;2024-01-11T03:29:52;-1.70;1.00
35607;DHT22;21729;58.392;15.656;2024-01-11T03:32:19;-1.70;1.00
35607;DHT22;21729;58.392;15.656;2024-01-11T03:34:48;-1.60;1.00
35607;DHT22;21729;58.392;15.656;2024-01-11T03:37:15;-1.60;1.00
35607;DHT22;21729;58.392;15.656;2024-01-11T03:39:42;-1.60;1.00
35607;DHT22;21729;58.392;15.656;2024-01-11T03:42:09;-1.40;1.00
35607;DHT22;21729;58.392;15.656;2024-01-11T03:44:36;-1.70;1.00
35607;DHT22;21729;58.392;15.656;2024-01-11T03:47:03;-1.60;1.00
35607;DHT22;21729;58.392;15.656;2024-01-11T03:49:30;-1.60;1.00
35607;DHT22;21729;58.392;15.656;2024-01-11T03:51:58;-1.50;1.00
35607;DHT22;21729;58.392;15.656;2024-01-11T03:54:25;-1.50;1.00
35607;DHT22;21729;58.392;15.656;2024-01-11T03:56:52;-1.60;1.00
35607;DHT22;21729;58.392;15.656;2024-01-11T03:59:19;-1.60;1.00
35607;DHT22;21729;58.392;15.656;2024-01-11T04:01:46;-1.20;1.00
35607;DHT22;21729;58.392;15.656;2024-01-11T04:04:13;-1.30;3.60
35607;DHT22;21729;58.392;15.656;2024-01-11T04:06:41;-1.20;1.00
35607;DHT22;21729;58.392;15.656;2024-01-11T04:09:09;-1.10;1.00
35607;DHT22;21729;58.392;15.656;2024-01-11T04:11:36;-1.10;1.00
35607;DHT22;21729;58.392;15.656;2024-01-11T04:14:03;-0.90;1.00
35607;DHT22;21729;58.392;15.656;2024-01-11T04:16:30;-1.00;1.00
35607;DHT22;21729;58.392;15.656;2024-01-11T04:18:58;-1.00;1.00
35607;DHT22;21729;58.392;15.656;2024-01-11T04:21:26;-1.10;1.00
35607;DHT22;21729;58.392;15.656;2024-01-11T04:23:54;-0.80;1.00
35607;DHT22;21729;58.392;15.656;2024-01-11T04:26:23;-1.00;1.00
35607;DHT22;21729;58.392;15.656;2024-01-11T04:28:51;-0.60;1.00
35607;DHT22;21729;58.392;15.656;2024-01-11T04:31:18;-0.90;1.00
35607;DHT22;21729;58.392;15.656;2024-01-11T04:33:46;-0.70;1.00
35607;DHT22;21729;58.392;15.656;2024-01-11T04:36:13;-0.80;1.00
35607;DHT22;21729;58.392;15.656;2024-01-11T04:38:40;-0.90;1.00
35607;DHT22;21729;58.392;15.656;2024-01-11T04:41:10;-0.70;1.00
35607;DHT22;21729;58.392;15.656;2024-01-11T04:43:40;-0.60;1.00
35607;DHT22;21729;58.392;15.656;2024-01-11T04:46:13;-0.40;1.00
35607;DHT22;21729;58.392;15.656;2024-01-11T04:48:41;-0.30;1.00
35607;DHT22;21729;58.392;15.656;2024-01-11T04:51:08;-0.10;1.00
35607;DHT22;21729;58.392;15.656;2024-01-11T04:53:37;0.10;1.00
35607;DHT22;21729;58.392;15.656;2024-01-11T04:56:05;0.50;1.00
35607;DHT22;21729;58.392;15.656;2024-01-11T04:58:33;0.70;1.00
35607;DHT22;21729;58.392;15.656;2024-01-11T05:01:01;1.10;99.90
35607;DHT22;21729;58.392;15.656;2024-01-11T05:03:28;1.30;99.90
35607;DHT22;21729;58.392;15.656;2024-01-11T05:05:55;1.60;99.90
35607;DHT22;21729;58.392;15.656;2024-01-11T05:08:23;1.80;99.90
35607;DHT22;21729;58.392;15.656;2024-01-11T05:10:50;2.00;99.90
35607;DHT22;21729;58.392;15.656;2024-01-11T05:13:17;2.00;99.90
35607;DHT22;21729;58.392;15.656;2024-01-11T05:15:44;2.00;99.90
35607;DHT22;21729;58.392;15.656;2024-01-11T05:18:13;2.00;99.90
35607;DHT22;21729;58.392;15.656;2024-01-11T05:20:40;2.00;99.90
35607;DHT22;21729;58.392;15.656;2024-01-11T05:23:07;2.00;99.90
35607;DHT22;21729;58.392;15.656;2024-01-11T05:25:35;2.00;99.90
35607;DHT22;21729;58.392;15.656;2024-01-11T05:28:03;1.90;99.90
35607;DHT22;21729;58.392;15.656;2024-01-11T05:30:30;1.90;99.90
35607;DHT22;21729;58.392;15.656;2024-01-11T05:32:57;1.90;99.90
35607;DHT22;21729;58.392;15.656;2024-01-11T05:35:26;2.00;99.90
35607;DHT22;21729;58.392;15.656;2024-01-11T05:37:54;2.00;99.90
35607;DHT22;21729;58.392;15.656;2024-01-11T05:40:21;1.90;99.90
35607;DHT22;21729;58.392;15.656;2024-01-11T05:42:48;1.90;99.90
35607;DHT22;21729;58.392;15.656;2024-01-11T05:45:15;1.80;99.90
35607;DHT22;21729;58.392;15.656;2024-01-11T05:47:43;1.80;99.90
35607;DHT22;21729;58.392;15.656;2024-01-11T05:50:11;1.80;99.90
35607;DHT22;21729;58.392;15.656;2024-01-11T05:52:39;1.90;99.90
35607;DHT22;21729;58.392;15.656;2024-01-11T05:55:07;1.90;99.90
35607;DHT22;21729;58.392;15.656;2024-01-11T05:57:34;1.80;99.90
35607;DHT22;21729;58.392;15.656;2024-01-11T06:00:01;1.80;99.90
35607;DHT22;21729;58.392;15.656;2024-01-11T06:02:29;1.80;99.90
35607;DHT22;21729;58.392;15.656;2024-01-11T06:04:57;1.70;99.90
35607;DHT22;21729;58.392;15.656;2024-01-11T06:07:24;1.80;99.90
35607;DHT22;21729;58.392;15.656;2024-01-11T06:09:52;1.80;99.90
35607;DHT22;21729;58.392;15.656;2024-01-11T06:12:20;1.70;99.90
35607;DHT22;21729;58.392;15.656;2024-01-11T06:14:47;1.60;99.90
35607;DHT22;21729;58.392;15.656;2024-01-11T06:17:14;1.60;99.90
35607;DHT22;21729;58.392;15.656;2024-01-11T06:19:41;1.70;99.90
35607;DHT22;21729;58.392;15.656;2024-01-11T06:22:08;1.60;99.90
35607;DHT22;21729;58.392;15.656;2024-01-11T06:24:35;1.50;99.90
35607;DHT22;21729;58.392;15.656;2024-01-11T06:27:03;1.50;99.90
35607;DHT22;21729;58.392;15.656;2024-01-11T06:29:31;1.60;99.90
35607;DHT22;21729;58.392;15.656;2024-01-11T06:31:58;1.70;99.90
35607;DHT22;21729;58.392;15.656;2024-01-11T06:34:25;1.70;99.90
35607;DHT22;21729;58.392;15.656;2024-01-11T06:36:53;1.80;99.90
35607;DHT22;21729;58.392;15.656;2024-01-11T06:39:20;1.70;99.90
35607;DHT22;21729;58.392;15.656;2024-01-11T06:41:47;1.70;99.90
35607;DHT22;21729;58.392;15.656;2024-01-11T06:44:15;1.70;99.90
35607;DHT22;21729;58.392;15.656;2024-01-11T06:46:43;1.70;99.90
35607;DHT22;21729;58.392;15.656;2024-01-11T06:49:10;1.80;99.90
35607;DHT22;21729;58.392;15.656;2024-01-11T06:51:38;1.80;99.90
35607;DHT22;21729;58.392;15.656;2024-01-11T06:54:06;1.70;99.90
35607;DHT22;21729;58.392;15.656;2024-01-11T06:56:33;1.70;99.90
35607;DHT22;21729;58.392;15.656;2024-01-11T06:59:01;1.60;99.90
35607;DHT22;21729;58.392;15.656;2024-01-11T07:01:29;1.70;99.90
35607;DHT22;21729;58.392;15.656;2024-01-11T07:03:56;1.70;99.90
35607;DHT22;21729;58.392;15.656;2024-01-11T07:06:23;1.70;99.90
35607;DHT22;21729;58.392;15.656;2024-01-11T07:08:50;1.70;99.90
35607;DHT22;21729;58.392;15.656;2024-01-11T07:11:16;1.80;99.90
35607;DHT22;21729;58.392;15.656;2024-01-11T07:13:43;1.80;99.90
35607;DHT22;21729;58.392;15.656;2024-01-11T07:16:10;1.70;99.90
35607;DHT22;21729;58.392;15.656;2024-01-11T07:18:39;1.70;99.90
35607;DHT22;21729;58.392;15.656;2024-01-11T07:21:06;1.80;99.90
35607;DHT22;21729;58.392;15.656;2024-01-11T07:23:33;1.80;99.90
35607;DHT22;21729;58.392;15.656;2024-01-11T07:26:00;1.80;99.90
35607;DHT22;21729;58.392;15.656;2024-01-11T07:28:28;1.80;99.90
35607;DHT22;21729;58.392;15.656;2024-01-11T07:30:55;1.80;99.90
35607;DHT22;21729;58.392;15.656;2024-01-11T07:33:22;1.80;99.90
35607;DHT22;21729;58.392;15.656;2024-01-11T07:35:51;1.90;99.90
35607;DHT22;21729;58.392;15.656;2024-01-11T07:38:18;1.80;99.90
35607;DHT22;21729;58.392;15.656;2024-01-11T07:40:45;1.80;99.90
35607;DHT22;21729;58.392;15.656;2024-01-11T07:43:12;1.70;99.90
35607;DHT22;21729;58.392;15.656;2024-01-11T07:45:39;1.60;99.90
35607;DHT22;21729;58.392;15.656;2024-01-11T07:48:06;1.50;99.90
35607;DHT22;21729;58.392;15.656;2024-01-11T07:50:34;1.50;99.90
35607;DHT22;21729;58.392;15.656;2024-01-11T07:53:03;1.50;99.90
35607;DHT22;21729;58.392;15.656;2024-01-11T07:55:32;1.40;99.90
35607;DHT22;21729;58.392;15.656;2024-01-11T07:57:59;1.50;99.90
35607;DHT22;21729;58.392;15.656;2024-01-11T08:00:26;1.50;99.90
35607;DHT22;21729;58.392;15.656;2024-01-11T08:02:53;1.40;99.90
35607;DHT22;21729;58.392;15.656;2024-01-11T08:05:20;1.40;99.90
35607;DHT22;21729;58.392;15.656;2024-01-11T08:07:48;1.40;99.90
35607;DHT22;21729;58.392;15.656;2024-01-11T08:10:17;1.40;99.90
35607;DHT22;21729;58.392;15.656;2024-01-11T08:12:44;1.30;99.90
35607;DHT22;21729;58.392;15.656;2024-01-11T08:15:11;1.40;99.90
35607;DHT22;21729;58.392;15.656;2024-01-11T08:17:39;1.40;99.90
35607;DHT22;21729;58.392;15.656;2024-01-11T08:20:11;1.30;99.90
35607;DHT22;21729;58.392;15.656;2024-01-11T08:22:39;1.30;99.90
35607;DHT22;21729;58.392;15.656;2024-01-11T08:25:06;1.30;99.90
35607;DHT22;21729;58.392;15.656;2024-01-11T08:27:35;1.30;99.90
35607;DHT22;21729;58.392;15.656;2024-01-11T08:30:04;1.30;99.90
35607;DHT22;21729;58.392;15.656;2024-01-11T08:32:31;1.30;99.90
35607;DHT22;21729;58.392;15.656;2024-01-11T08:35:05;1.30;99.90
35607;DHT22;21729;58.392;15.656;2024-01-11T08:37:32;1.30;99.90
35607;DHT22;21729;58.392;15.656;2024-01-11T08:39:59;1.30;99.90
35607;DHT22;21729;58.392;15.656;2024-01-11T08:42:26;1.40;99.90
35607;DHT22;21729;58.392;15.656;2024-01-11T08:44:55;1.40;99.90
35607;DHT22;21729;58.392;15.656;2024-01-11T08:47:22;1.50;99.90
35607;DHT22;21729;58.392;15.656;2024-01-11T08:49:49;1.50;99.90
35607;DHT22;21729;58.392;15.656;2024-01-11T08:52:16;1.60;99.90
35607;DHT22;21729;58.392;15.656;2024-01-11T08:54:43;1.70;99.90
35607;DHT22;21729;58.392;15.656;2024-01-11T08:57:10;1.80;99.90
35607;DHT22;21729;58.392;15.656;2024-01-11T08:59:37;1.90;99.90
35607;DHT22;21729;58.392;15.656;2024-01-11T09:02:06;2.00;99.90
35607;DHT22;21729;58.392;15.656;2024-01-11T09:04:33;2.00;99.90
35607;DHT22;21729;58.392;15.656;2024-01-11T09:07:00;2.00;99.90
35607;DHT22;21729;58.392;15.656;2024-01-11T09:09:27;2.00;99.90
35607;DHT22;21729;58.392;15.656;2024-01-11T09:11:54;2.10;99.90
35607;DHT22;21729;58.392;15.656;2024-01-11T09:14:21;2.40;99.90
35607;DHT22;21729;58.392;15.656;2024-01-11T09:16:48;2.50;99.90
35607;DHT22;21729;58.392;15.656;2024-01-11T09:19:17;2.40;99.40
35607;DHT22;21729;58.392;15.656;2024-01-11T09:21:44;2.40;87.30
35607;DHT22;21729;58.392;15.656;2024-01-11T09:24:11;2.40;92.90
35607;DHT22;21729;58.392;15.656;2024-01-11T09:26:38;2.40;99.90
35607;DHT22;21729;58.392;15.656;2024-01-11T09:29:05;2.50;99.90
35607;DHT22;21729;58.392;15.656;2024-01-11T09:31:32;2.60;76.30
35607;DHT22;21729;58.392;15.656;2024-01-11T09:33:59;2.60;60.60
35607;DHT22;21729;58.392;15.656;2024-01-11T09:36:27;2.60;71.40
35607;DHT22;21729;58.392;15.656;2024-01-11T09:38:55;2.70;79.70
35607;DHT22;21729;58.392;15.656;2024-01-11T09:41:22;2.70;84.00
35607;DHT22;21729;58.392;15.656;2024-01-11T09:43:52;2.70;65.00
35607;DHT22;21729;58.392;15.656;2024-01-11T09:46:21;2.70;79.90
35607;DHT22;21729;58.392;15.656;2024-01-11T09:48:49;2.60;92.80
35607;DHT22;21729;58.392;15.656;2024-01-11T09:51:17;2.70;84.40
35607;DHT22;21729;58.392;15.656;2024-01-11T09:53:47;2.70;94.40
35607;DHT22;21729;58.392;15.656;2024-01-11T09:56:16;2.70;85.30
35607;DHT22;21729;58.392;15.656;2024-01-11T09:58:47;2.70;99.90
35607;DHT22;21729;58.392;15.656;2024-01-11T10:01:16;2.70;99.90
35607;DHT22;21729;58.392;15.656;2024-01-11T10:03:44;2.70;99.90
35607;DHT22;21729;58.392;15.656;2024-01-11T10:06:12;2.70;99.90
35607;DHT22;21729;58.392;15.656;2024-01-11T10:08:39;2.80;99.90
35607;DHT22;21729;58.392;15.656;2024-01-11T10:11:07;2.80;99.90
35607;DHT22;21729;58.392;15.656;2024-01-11T10:13:36;2.80;99.90
35607;DHT22;21729;58.392;15.656;2024-01-11T10:16:08;2.90;99.90
35607;DHT22;21729;58.392;15.656;2024-01-11T10:18:35;3.00;99.90
35607;DHT22;21729;58.392;15.656;2024-01-11T10:21:03;3.10;71.80
35607;DHT22;21729;58.392;15.656;2024-01-11T10:23:33;3.00;92.60
35607;DHT22;21729;58.392;15.656;2024-01-11T10:26:00;3.00;89.70
35607;DHT22;21729;58.392;15.656;2024-01-11T10:28:29;3.00;91.10
35607;DHT22;21729;58.392;15.656;2024-01-11T10:30:57;3.00;82.50
35607;DHT22;21729;58.392;15.656;2024-01-11T10:33:24;2.90;99.90
35607;DHT22;21729;58.392;15.656;2024-01-11T10:35:51;2.70;99.90
35607;DHT22;21729;58.392;15.656;2024-01-11T10:38:18;2.70;99.90
35607;DHT22;21729;58.392;15.656;2024-01-11T10:40:47;2.60;99.90
35607;DHT22;21729;58.392;15.656;2024-01-11T10:43:19;2.60;99.90
35607;DHT22;21729;58.392;15.656;2024-01-11T10:45:52;2.60;99.90
35607;DHT22;21729;58.392;15.656;2024-01-11T10:48:21;2.60;87.90
35607;DHT22;21729;58.392;15.656;2024-01-11T10:50:54;2.70;71.70
35607;DHT22;21729;58.392;15.656;2024-01-11T10:53:28;2.80;67.50
35607;DHT22;21729;58.392;15.656;2024-01-11T10:55:55;2.70;58.90
35607;DHT22;21729;58.392;15.656;2024-01-11T10:58:26;2.80;38.30
35607;DHT22;21729;58.392;15.656;2024-01-11T11:00:54;2.80;36.90
35607;DHT22;21729;58.392;15.656;2024-01-11T11:03:23;2.90;50.60
35607;DHT22;21729;58.392;15.656;2024-01-11T11:05:53;2.90;34.00
35607;DHT22;21729;58.392;15.656;2024-01-11T11:08:23;2.80;33.40
35607;DHT22;21729;58.392;15.656;2024-01-11T11:10:55;2.80;4.20
35607;DHT22;21729;58.392;15.656;2024-01-11T11:13:24;2.80;1.00
35607;DHT22;21729;58.392;15.656;2024-01-11T11:15:52;2.90;1.00
35607;DHT22;21729;58.392;15.656;2024-01-11T11:18:20;2.90;1.00
35607;DHT22;21729;58.392;15.656;2024-01-11T11:20:48;2.90;1.00
35607;DHT22;21729;58.392;15.656;2024-01-11T11:23:17;2.90;1.00
35607;DHT22;21729;58.392;15.656;2024-01-11T11:25:46;2.90;1.00
35607;DHT22;21729;58.392;15.656;2024-01-11T11:28:14;2.90;1.00
35607;DHT22;21729;58.392;15.656;2024-01-11T11:30:43;2.80;1.00
35607;DHT22;21729;58.392;15.656;2024-01-11T11:33:11;2.80;1.00
35607;DHT22;21729;58.392;15.656;2024-01-11T11:35:46;2.80;1.00
35607;DHT22;21729;58.392;15.656;2024-01-11T11:38:17;2.80;1.00
35607;DHT22;21729;58.392;15.656;2024-01-11T11:40:46;2.80;1.00
35607;DHT22;21729;58.392;15.656;2024-01-11T11:43:16;2.90;1.00
35607;DHT22;21729;58.392;15.656;2024-01-11T11:45:44;2.80;1.00
35607;DHT22;21729;58.392;15.656;2024-01-11T11:51:15;2.70;1.00
35607;DHT22;21729;58.392;15.656;2024-01-11T11:53:43;2.70;1.00
35607;DHT22;21729;58.392;15.656;2024-01-11T11:56:10;2.70;1.00
35607;DHT22;21729;58.392;15.656;2024-01-11T11:58:38;2.70;1.00
35607;DHT22;21729;58.392;15.656;2024-01-11T12:01:05;2.70;1.00
35607;DHT22;21729;58.392;15.656;2024-01-11T12:03:33;2.80;1.00
35607;DHT22;21729;58.392;15.656;2024-01-11T12:06:03;2.70;1.00
35607;DHT22;21729;58.392;15.656;2024-01-11T12:08:32;2.70;1.00
35607;DHT22;21729;58.392;15.656;2024-01-11T12:10:59;2.70;1.00
35607;DHT22;21729;58.392;15.656;2024-01-11T12:13:27;2.70;1.00
35607;DHT22;21729;58.392;15.656;2024-01-11T12:15:54;2.70;1.00
35607;DHT22;21729;58.392;15.656;2024-01-11T12:18:24;2.70;1.00
35607;DHT22;21729;58.392;15.656;2024-01-11T12:20:51;2.70;1.00
35607;DHT22;21729;58.392;15.656;2024-01-11T12:23:19;2.60;1.00
35607;DHT22;21729;58.392;15.656;2024-01-11T12:25:48;2.60;1.00
35607;DHT22;21729;58.392;15.656;2024-01-11T12:28:15;2.60;1.00
35607;DHT22;21729;58.392;15.656;2024-01-11T12:30:43;2.50;1.00
35607;DHT22;21729;58.392;15.656;2024-01-11T12:33:12;2.40;1.00
35607;DHT22;21729;58.392;15.656;2024-01-11T12:35:40;2.40;1.00
35607;DHT22;21729;58.392;15.656;2024-01-11T12:38:06;2.30;1.00
35607;DHT22;21729;58.392;15.656;2024-01-11T12:40:35;2.30;1.00
35607;DHT22;21729;58.392;15.656;2024-01-11T12:43:06;2.30;1.00
35607;DHT22;21729;58.392;15.656;2024-01-11T12:45:33;2.40;1.00
35607;DHT22;21729;58.392;15.656;2024-01-11T12:48:01;2.50;1.00
35607;DHT22;21729;58.392;15.656;2024-01-11T12:50:29;2.50;1.00
35607;DHT22;21729;58.392;15.656;2024-01-11T12:53:08;2.50;1.00
35607;DHT22;21729;58.392;15.656;2024-01-11T12:55:38;2.50;1.00
35607;DHT22;21729;58.392;15.656;2024-01-11T12:58:08;2.50;1.00
35607;DHT22;21729;58.392;15.656;2024-01-11T13:00:36;2.50;1.00
35607;DHT22;21729;58.392;15.656;2024-01-11T13:03:04;2.50;1.00
35607;DHT22;21729;58.392;15.656;2024-01-11T13:05:32;2.50;1.00
35607;DHT22;21729;58.392;15.656;2024-01-11T13:08:01;2.40;1.00
35607;DHT22;21729;58.392;15.656;2024-01-11T13:10:30;2.40;1.00
35607;DHT22;21729;58.392;15.656;2024-01-11T13:12:58;2.30;1.00
35607;DHT22;21729;58.392;15.656;2024-01-11T13:15:28;2.30;1.00
35607;DHT22;21729;58.392;15.656;2024-01-11T13:17:57;2.30;1.00
35607;DHT22;21729;58.392;15.656;2024-01-11T13:20:25;2.30;1.00
35607;DHT22;21729;58.392;15.656;2024-01-11T13:23:11;2.20;1.00
35607;DHT22;21729;58.392;15.656;2024-01-11T13:25:39;2.20;1.00
35607;DHT22;21729;58.392;15.656;2024-01-11T13:28:07;2.10;1.00
35607;DHT22;21729;58.392;15.656;2024-01-11T13:30:36;2.00;1.00
35607;DHT22;21729;58.392;15.656;2024-01-11T13:33:03;1.90;1.00
35607;DHT22;21729;58.392;15.656;2024-01-11T13:35:30;2.00;1.00
35607;DHT22;21729;58.392;15.656;2024-01-11T13:37:58;1.90;1.00
35607;DHT22;21729;58.392;15.656;2024-01-11T13:40:26;2.00;1.00
35607;DHT22;21729;58.392;15.656;2024-01-11T13:42:54;2.00;1.00
35607;DHT22;21729;58.392;15.656;2024-01-11T13:45:22;2.00;1.00
35607;DHT22;21729;58.392;15.656;2024-01-11T13:47:50;2.00;1.00
35607;DHT22;21729;58.392;15.656;2024-01-11T13:50:19;2.00;1.00
35607;DHT22;21729;58.392;15.656;2024-01-11T13:52:46;2.00;1.00
35607;DHT22;21729;58.392;15.656;2024-01-11T13:55:13;2.00;1.00
35607;DHT22;21729;58.392;15.656;2024-01-11T13:57:40;2.00;1.00
35607;DHT22;21729;58.392;15.656;2024-01-11T14:00:10;2.00;1.00
35607;DHT22;21729;58.392;15.656;2024-01-11T14:02:38;1.90;1.00
35607;DHT22;21729;58.392;15.656;2024-01-11T14:05:08;1.90;1.30
35607;DHT22;21729;58.392;15.656;2024-01-11T14:07:37;1.80;6.00
35607;DHT22;21729;58.392;15.656;2024-01-11T14:10:06;1.70;22.90
35607;DHT22;21729;58.392;15.656;2024-01-11T14:12:34;1.70;32.80
35607;DHT22;21729;58.392;15.656;2024-01-11T14:15:02;1.60;29.20
35607;DHT22;21729;58.392;15.656;2024-01-11T14:17:29;1.60;27.30
35607;DHT22;21729;58.392;15.656;2024-01-11T14:19:56;1.50;26.10
35607;DHT22;21729;58.392;15.656;2024-01-11T14:22:26;1.30;42.20
35607;DHT22;21729;58.392;15.656;2024-01-11T14:24:53;1.20;85.70
35607;DHT22;21729;58.392;15.656;2024-01-11T14:27:21;1.10;99.90
35607;DHT22;21729;58.392;15.656;2024-01-11T14:32:18;0.90;99.90
35607;DHT22;21729;58.392;15.656;2024-01-11T14:34:45;0.90;99.90
35607;DHT22;21729;58.392;15.656;2024-01-11T14:37:13;1.00;99.90
35607;DHT22;21729;58.392;15.656;2024-01-11T14:39:42;1.00;99.90
35607;DHT22;21729;58.392;15.656;2024-01-11T14:42:09;0.80;99.90
35607;DHT22;21729;58.392;15.656;2024-01-11T14:44:36;0.80;99.90
35607;DHT22;21729;58.392;15.656;2024-01-11T14:47:02;0.80;99.90
35607;DHT22;21729;58.392;15.656;2024-01-11T14:49:29;0.70;99.90
35607;DHT22;21729;58.392;15.656;2024-01-11T14:51:56;0.60;97.30
35607;DHT22;21729;58.392;15.656;2024-01-11T14:54:24;0.50;99.90
35607;DHT22;21729;58.392;15.656;2024-01-11T14:56:52;0.40;99.90
35607;DHT22;21729;58.392;15.656;2024-01-11T14:59:20;0.40;99.90
35607;DHT22;21729;58.392;15.656;2024-01-11T15:01:47;0.20;99.90
35607;DHT22;21729;58.392;15.656;2024-01-11T15:04:14;0.00;99.90
35607;DHT22;21729;58.392;15.656;2024-01-11T15:06:41;-0.20;99.90
35607;DHT22;21729;58.392;15.656;2024-01-11T15:09:09;-0.40;99.90
35607;DHT22;21729;58.392;15.656;2024-01-11T15:11:38;-0.50;99.90
35607;DHT22;21729;58.392;15.656;2024-01-11T15:14:07;-0.70;99.90
35607;DHT22;21729;58.392;15.656;2024-01-11T15:16:35;-0.60;99.90
35607;DHT22;21729;58.392;15.656;2024-01-11T15:19:03;-0.40;99.90
35607;DHT22;21729;58.392;15.656;2024-01-11T15:21:31;-0.60;99.90
35607;DHT22;21729;58.392;15.656;2024-01-11T15:23:59;-0.70;99.90
35607;DHT22;21729;58.392;15.656;2024-01-11T15:26:27;-0.50;99.90
35607;DHT22;21729;58.392;15.656;2024-01-11T15:28:54;-0.90;99.90
35607;DHT22;21729;58.392;15.656;2024-01-11T15:31:22;-1.00;99.90
35607;DHT22;21729;58.392;15.656;2024-01-11T15:33:51;-1.10;99.90
35607;DHT22;21729;58.392;15.656;2024-01-11T15:36:18;-1.10;99.90
35607;DHT22;21729;58.392;15.656;2024-01-11T15:38:45;-1.30;99.90